Česky Dansk Deutsch English Español Suomi Français Magyar Italiano Nederlands norsk Polski Português svenska Türkçe

 

Het Weer

Yenbo (Saudi-Arabië)

02:00, 28 juli 2016 (GMT)

NWNNE
WE
SWSSE
Home            
Yenbo Madinah Wejh Jeddah King Abdul Aziz International Airport Jeddah Makkah Taif Tabuk Hail Port Sudan Port Sudan International Asswan Hurguada Sharm El Sheikhintl Al Baha Luxor Gassim Dawadmi Al-Jouf Bisha Eilat Aqaba Airport Taba

Om een weerknop op uw website of weblog te plaatsen, copieer onderstaande code en plak die in uw pagina. In het eerste vakje staat HTML-code, in het tweede vakje UBB-code.


Add to Google

Details

Visibility:Greater than 10000 m, 10 km, 32800 ft, 6.2 miles
Clouds:CAVOC
Temperature:28°C, 82°F
Gefühlte Temperatur:30°C, 86°F
Dew-point:22°C, 72°F
Atmospheric pressure:997 hPa, 747.8 mmHg, 29.44 inHg, 0.984 atm
Relative humidity:69.9 %
METAR:OEYN 280200Z 00000KT CAVOK 28/22 Q0997 NOSIG

Snelkoppelingen

Actuele weersinformatie van de hele wereld. Voeg locaties toe met het plus (+) symbool. Deze snelkoppelingen kunnen worden toegevoegd aan Google.

Lid van de Technetium groep

website free tracking
StatCounter NetStat W3C Validator

17-04-2021 11:12:03
astro.technetium.be money.technetium.be phote.technetium.be tafeltennistafel.technetium.be www.ligfiets.net